Labuan Airport Labuan MY
ICAO: WBKL
IATA:
Category: Medium
Scheduled Services:

Elevation: 101 ft
TransAlt. 11000 ft.

Airport Communications:
APP:119.7
ATIS:126.85
GND:118.35
TWR:118.1

WBKL Zoom In..

Runways:

(A) RW 14 length 9006 ft width 148 ft
ILS 111.10 / hdg 145

(B) RW 32 length 9006 ft width 148 ft
---- / hdg 325

Location; WBKL
Day. 06 / Time. 22.00 Zulu
* QNH: 1010
* Temperature: 24° c. 75.2°f.
* Wind from: 000° Speed 00 kn.
Dewpoint: 24° c.
Visibility: 7000 m.
Clouds: Few 800 ft.
Clouds: Scattered 3000 ft.
Clouds: Broken 12000 ft.
Conditions: Light Rain.

WBKL 062200Z 00000KT 7000 -RA FEW008 SCT030 BKN120 24/24 Q1010


Wind - Calm.

 
 
jpsmedia worldairports.se 2020   terms of use